createdAt,value
2022-12-03T00:00:32.879Z,1011.81
2022-12-03T00:01:31.977Z,1011.77
2022-12-03T00:02:33.149Z,1011.79
2022-12-03T00:03:32.421Z,1011.81
2022-12-03T00:04:33.010Z,1011.74
2022-12-03T00:05:32.709Z,1011.76
2022-12-03T00:06:34.674Z,1011.76
2022-12-03T00:07:32.982Z,1011.79
2022-12-03T00:08:31.939Z,1011.77
2022-12-03T00:09:32.018Z,1011.78
2022-12-03T00:10:32.045Z,1011.81
2022-12-03T00:11:32.138Z,1011.76
2022-12-03T00:12:32.248Z,1011.82
2022-12-03T00:13:32.259Z,1011.81
2022-12-03T00:14:32.257Z,1011.71
2022-12-03T00:15:32.313Z,1011.74
2022-12-03T00:16:31.888Z,1011.82
2022-12-03T00:17:32.547Z,1011.78
2022-12-03T00:18:32.486Z,1011.74
2022-12-03T00:19:31.989Z,1011.75
2022-12-03T00:20:32.507Z,1011.81
2022-12-03T00:21:32.305Z,1011.75
2022-12-03T00:22:32.628Z,1011.76
2022-12-03T00:23:33.963Z,1011.72
2022-12-03T00:24:32.542Z,1011.75
2022-12-03T00:25:31.836Z,1011.77
2022-12-03T00:26:31.924Z,1011.77
2022-12-03T00:28:58.356Z,1011.70
2022-12-03T00:29:58.782Z,1011.71
2022-12-03T00:30:58.712Z,1011.73
2022-12-03T00:31:57.778Z,1011.68
2022-12-03T00:32:57.789Z,1011.70
2022-12-03T00:33:57.797Z,1011.75
2022-12-03T00:34:58.544Z,1011.69
2022-12-03T00:35:57.786Z,1011.70
2022-12-03T00:36:58.408Z,1011.72
2022-12-03T00:37:58.767Z,1011.69
2022-12-03T00:38:58.006Z,1011.71
2022-12-03T00:39:58.043Z,1011.71
2022-12-03T00:40:58.434Z,1011.71
2022-12-03T00:41:58.234Z,1011.67
2022-12-03T00:42:57.693Z,1011.73
2022-12-03T00:43:57.708Z,1011.66
2022-12-03T00:44:57.685Z,1011.70
2022-12-03T00:45:57.961Z,1011.67
2022-12-03T00:46:57.727Z,1011.66
2022-12-03T00:47:57.936Z,1011.71
2022-12-03T00:48:57.924Z,1011.71
2022-12-03T00:49:57.932Z,1011.70
2022-12-03T00:50:57.681Z,1011.64
2022-12-03T00:51:58.144Z,1011.66
2022-12-03T00:52:57.912Z,1011.61
2022-12-03T00:53:58.008Z,1011.62
2022-12-03T00:54:57.724Z,1011.57
2022-12-03T00:55:57.823Z,1011.64
2022-12-03T00:56:58.164Z,1011.58
2022-12-03T00:57:57.630Z,1011.60
2022-12-03T00:58:58.369Z,1011.63
2022-12-03T00:59:58.360Z,1011.59
2022-12-03T01:00:58.378Z,1011.63
2022-12-03T01:01:57.841Z,1011.68
2022-12-03T01:02:58.179Z,1011.63
2022-12-03T01:03:58.519Z,1011.76
2022-12-03T01:04:58.545Z,1011.73
2022-12-03T01:05:58.389Z,1011.66
2022-12-03T01:06:57.592Z,1011.66
2022-12-03T01:07:57.821Z,1011.69
2022-12-03T01:08:58.357Z,1011.69
2022-12-03T01:09:58.527Z,1011.69
2022-12-03T01:10:58.265Z,1011.76
2022-12-03T01:11:57.828Z,1011.69
2022-12-03T01:12:58.078Z,1011.74
2022-12-03T01:13:58.389Z,1011.72
2022-12-03T01:14:57.865Z,1011.64
2022-12-03T01:15:58.097Z,1011.70
2022-12-03T01:16:57.634Z,1011.72
2022-12-03T01:17:58.453Z,1011.72
2022-12-03T01:18:57.485Z,1011.71
2022-12-03T01:19:57.674Z,1011.68
2022-12-03T01:20:57.492Z,1011.70
2022-12-03T01:21:57.513Z,1011.69
2022-12-03T01:22:57.513Z,1011.67
2022-12-03T01:23:57.522Z,1011.71
2022-12-03T01:24:57.521Z,1011.70
2022-12-03T01:25:57.722Z,1011.70
2022-12-03T01:26:57.522Z,1011.71
2022-12-03T01:27:57.530Z,1011.70
2022-12-03T01:28:57.409Z,1011.73
2022-12-03T01:29:57.400Z,1011.76
2022-12-03T01:30:57.499Z,1011.80
2022-12-03T01:31:57.383Z,1011.80
2022-12-03T01:32:57.419Z,1011.79
2022-12-03T01:33:57.395Z,1011.76
2022-12-03T01:34:57.501Z,1011.75
2022-12-03T01:35:57.458Z,1011.80
2022-12-03T01:36:57.472Z,1011.80
2022-12-03T01:37:57.387Z,1011.76
2022-12-03T01:38:57.498Z,1011.74
2022-12-03T01:39:57.507Z,1011.78
2022-12-03T01:40:57.517Z,1011.75
2022-12-03T01:41:57.536Z,1011.74
2022-12-03T01:42:57.546Z,1011.74
2022-12-03T01:43:57.556Z,1011.73
2022-12-03T01:44:57.436Z,1011.75
2022-12-03T01:45:57.305Z,1011.78
2022-12-03T01:46:57.677Z,1011.76
2022-12-03T01:47:57.455Z,1011.76
2022-12-03T01:48:57.523Z,1011.78
2022-12-03T01:49:57.636Z,1011.82
2022-12-03T01:50:57.654Z,1011.74
2022-12-03T01:51:57.662Z,1011.76
2022-12-03T01:52:57.294Z,1011.80
2022-12-03T01:53:57.247Z,1011.80
2022-12-03T01:54:57.229Z,1011.77
2022-12-03T01:55:57.233Z,1011.79
2022-12-03T01:56:57.513Z,1011.82
2022-12-03T01:57:57.326Z,1011.80
2022-12-03T01:58:57.342Z,1011.80
2022-12-03T01:59:57.225Z,1011.78
2022-12-03T02:00:57.341Z,1011.79
2022-12-03T02:01:57.382Z,1011.70
2022-12-03T02:02:57.564Z,1011.80
2022-12-03T02:03:57.272Z,1011.81
2022-12-03T02:04:57.569Z,1011.69
2022-12-03T02:05:57.601Z,1011.75
2022-12-03T02:06:57.588Z,1011.73
2022-12-03T02:07:57.639Z,1011.76
2022-12-03T02:08:57.179Z,1011.82
2022-12-03T02:09:57.389Z,1011.73
2022-12-03T02:10:57.808Z,1011.75
2022-12-03T02:11:57.836Z,1011.77
2022-12-03T02:12:57.415Z,1011.80
2022-12-03T02:13:57.127Z,1011.73
2022-12-03T02:14:57.966Z,1011.77
2022-12-03T02:15:58.030Z,1011.79
2022-12-03T02:16:57.976Z,1011.79
2022-12-03T02:17:57.447Z,1011.80
2022-12-03T02:18:57.749Z,1011.80
2022-12-03T02:19:57.946Z,1011.74
2022-12-03T02:20:57.666Z,1011.76
2022-12-03T02:21:57.264Z,1011.77
2022-12-03T02:22:57.886Z,1011.82
2022-12-03T02:23:57.895Z,1011.76
2022-12-03T02:24:57.332Z,1011.73
2022-12-03T02:25:57.354Z,1011.76
2022-12-03T02:26:57.094Z,1011.74
2022-12-03T02:27:57.101Z,1011.70
2022-12-03T02:28:57.112Z,1011.74
2022-12-03T02:29:57.112Z,1011.74
2022-12-03T02:30:57.145Z,1011.71
2022-12-03T02:31:57.034Z,1011.74
2022-12-03T02:32:57.003Z,1011.73
2022-12-03T02:33:57.008Z,1011.68
2022-12-03T02:34:56.986Z,1011.68
2022-12-03T02:36:01.924Z,1011.71
2022-12-03T02:36:57.179Z,1011.70
2022-12-03T02:37:56.971Z,1011.73
2022-12-03T02:38:56.982Z,1011.70
2022-12-03T02:39:57.000Z,1011.68
2022-12-03T02:40:57.219Z,1011.73
2022-12-03T02:41:56.938Z,1011.67
2022-12-03T02:42:57.001Z,1011.66
2022-12-03T02:43:56.922Z,1011.71
2022-12-03T02:45:00.780Z,1011.77
2022-12-03T02:45:56.967Z,1011.77
2022-12-03T02:46:56.964Z,1011.70
2022-12-03T02:47:57.026Z,1011.70
2022-12-03T02:48:57.037Z,1011.74
2022-12-03T02:49:57.036Z,1011.78
2022-12-03T02:50:57.048Z,1011.75
2022-12-03T02:51:56.876Z,1011.74
2022-12-03T02:52:57.057Z,1011.71
2022-12-03T02:53:57.065Z,1011.75
2022-12-03T02:54:57.074Z,1011.71
2022-12-03T02:55:56.877Z,1011.72
2022-12-03T02:56:56.852Z,1011.75
2022-12-03T02:57:57.124Z,1011.74
2022-12-03T02:58:57.103Z,1011.70
2022-12-03T02:59:57.122Z,1011.75
2022-12-03T03:00:56.881Z,1011.73
2022-12-03T03:01:56.940Z,1011.74
2022-12-03T03:02:57.334Z,1011.67
2022-12-03T03:03:56.813Z,1011.74
2022-12-03T03:04:57.131Z,1011.73
2022-12-03T03:05:57.350Z,1011.65
2022-12-03T03:06:56.938Z,1011.69
2022-12-03T03:07:57.453Z,1011.65
2022-12-03T03:08:57.371Z,1011.73
2022-12-03T03:09:56.748Z,1011.71
2022-12-03T03:10:57.381Z,1011.63
2022-12-03T03:11:56.771Z,1011.66
2022-12-03T03:12:56.743Z,1011.68
2022-12-03T03:13:56.779Z,1011.69
2022-12-03T03:14:56.788Z,1011.65
2022-12-03T03:15:56.838Z,1011.65
2022-12-03T03:16:56.773Z,1011.67
2022-12-03T03:17:56.699Z,1011.70
2022-12-03T03:18:56.744Z,1011.68
2022-12-03T03:19:56.816Z,1011.58
2022-12-03T03:20:57.028Z,1011.60
2022-12-03T03:21:56.858Z,1011.57
2022-12-03T03:22:57.046Z,1011.62
2022-12-03T03:23:57.257Z,1011.61
2022-12-03T03:24:56.683Z,1011.55
2022-12-03T03:25:57.276Z,1011.53
2022-12-03T03:26:56.872Z,1011.52
2022-12-03T03:27:56.674Z,1011.55
2022-12-03T03:28:56.674Z,1011.58
2022-12-03T03:29:57.515Z,1011.51
2022-12-03T03:30:56.713Z,1011.50
2022-12-03T03:31:57.407Z,1011.56
2022-12-03T03:32:57.353Z,1011.49
2022-12-03T03:33:56.955Z,1011.51
2022-12-03T03:34:57.583Z,1011.50
2022-12-03T03:35:56.723Z,1011.51
2022-12-03T03:36:57.146Z,1011.52
2022-12-03T03:37:57.634Z,1011.45
2022-12-03T03:38:56.571Z,1011.52
2022-12-03T03:39:57.159Z,1011.48
2022-12-03T03:40:56.590Z,1011.57
2022-12-03T03:41:57.494Z,1011.48
2022-12-03T03:42:57.389Z,1011.47
2022-12-03T03:43:56.771Z,1011.49
2022-12-03T03:44:56.980Z,1011.47
2022-12-03T03:45:56.653Z,1011.44
2022-12-03T03:46:56.790Z,1011.49
2022-12-03T03:47:57.211Z,1011.49
2022-12-03T03:48:56.607Z,1011.44
2022-12-03T03:49:57.219Z,1011.45
2022-12-03T03:50:56.508Z,1011.48
2022-12-03T03:51:56.498Z,1011.44
2022-12-03T03:52:56.488Z,1011.45
2022-12-03T03:53:56.474Z,1011.39
2022-12-03T03:54:56.479Z,1011.45
2022-12-03T03:55:56.467Z,1011.44
2022-12-03T03:56:56.476Z,1011.41
2022-12-03T03:57:56.496Z,1011.42
2022-12-03T03:58:56.505Z,1011.40
2022-12-03T03:59:56.466Z,1011.38
2022-12-03T04:00:56.578Z,1011.42
2022-12-03T04:01:56.483Z,1011.41
2022-12-03T04:02:56.553Z,1011.37
2022-12-03T04:03:56.506Z,1011.36
2022-12-03T04:04:56.576Z,1011.37
2022-12-03T04:05:56.712Z,1011.35
2022-12-03T04:06:56.513Z,1011.37
2022-12-03T04:07:56.773Z,1011.34
2022-12-03T04:08:56.392Z,1011.33
2022-12-03T04:09:56.742Z,1011.29
2022-12-03T04:10:56.755Z,1011.32
2022-12-03T04:11:56.751Z,1011.31
2022-12-03T04:12:56.466Z,1011.32
2022-12-03T04:13:56.769Z,1011.27
2022-12-03T04:14:56.361Z,1011.31
2022-12-03T04:15:56.771Z,1011.25
2022-12-03T04:16:56.422Z,1011.26
2022-12-03T04:17:56.791Z,1011.24
2022-12-03T04:18:56.593Z,1011.30
2022-12-03T04:19:56.799Z,1011.30
2022-12-03T04:20:56.808Z,1011.32
2022-12-03T04:21:56.855Z,1011.29
2022-12-03T04:22:56.641Z,1011.35
2022-12-03T04:23:56.409Z,1011.33
2022-12-03T04:24:56.830Z,1011.31
2022-12-03T04:25:56.458Z,1011.36
2022-12-03T04:26:56.844Z,1011.34
2022-12-03T04:27:56.699Z,1011.37
2022-12-03T04:28:56.646Z,1011.40
2022-12-03T04:29:56.246Z,1011.35
2022-12-03T04:30:56.306Z,1011.41
2022-12-03T04:31:56.257Z,1011.35
2022-12-03T04:32:56.214Z,1011.37
2022-12-03T04:33:56.276Z,1011.31
2022-12-03T04:34:56.747Z,1011.36
2022-12-03T04:35:56.484Z,1011.31
2022-12-03T04:36:56.302Z,1011.36
2022-12-03T04:37:56.354Z,1011.39
2022-12-03T04:38:56.525Z,1011.37
2022-12-03T04:39:56.524Z,1011.35
2022-12-03T04:40:56.322Z,1011.32
2022-12-03T04:41:56.744Z,1011.31
2022-12-03T04:42:56.162Z,1011.35
2022-12-03T04:43:56.345Z,1011.30
2022-12-03T04:44:56.672Z,1011.29
2022-12-03T04:45:56.412Z,1011.19
2022-12-03T04:46:56.631Z,1011.25
2022-12-03T04:47:56.135Z,1011.18
2022-12-03T04:48:56.581Z,1011.21
2022-12-03T04:49:56.382Z,1011.13
2022-12-03T04:50:56.185Z,1011.13
2022-12-03T04:51:56.370Z,1011.11
2022-12-03T04:52:57.079Z,1011.22
2022-12-03T04:53:56.123Z,1011.22
2022-12-03T04:54:56.405Z,1011.16
2022-12-03T04:55:56.082Z,1011.16
2022-12-03T04:56:56.949Z,1011.21
2022-12-03T04:57:57.108Z,1011.20
2022-12-03T04:58:56.106Z,1011.15
2022-12-03T04:59:56.118Z,1011.18
2022-12-03T05:00:56.079Z,1011.13
2022-12-03T05:01:56.978Z,1011.17
2022-12-03T05:02:57.152Z,1011.20
2022-12-03T05:03:56.059Z,1011.15
2022-12-03T05:04:56.303Z,1011.15
2022-12-03T05:05:56.846Z,1011.15
2022-12-03T05:06:56.554Z,1011.15
2022-12-03T05:07:56.939Z,1011.15
2022-12-03T05:08:56.571Z,1011.17
2022-12-03T05:09:55.996Z,1011.20
2022-12-03T05:10:56.105Z,1011.18
2022-12-03T05:11:56.113Z,1011.16
2022-12-03T05:12:56.116Z,1011.15
2022-12-03T05:13:56.194Z,1011.12
2022-12-03T05:14:56.303Z,1011.16
2022-12-03T05:15:56.215Z,1011.12
2022-12-03T05:16:56.459Z,1011.12
2022-12-03T05:17:56.155Z,1011.14
2022-12-03T05:18:56.363Z,1011.11
2022-12-03T05:19:55.923Z,1011.12
2022-12-03T05:20:55.910Z,1011.13
2022-12-03T05:21:55.910Z,1011.10
2022-12-03T05:22:55.971Z,1011.08
2022-12-03T05:23:56.063Z,1011.07
2022-12-03T05:24:56.243Z,1011.08
2022-12-03T05:25:55.883Z,1011.02
2022-12-03T05:26:55.878Z,1011.09
2022-12-03T05:27:55.863Z,1011.08
2022-12-03T05:28:57.070Z,1011.06
2022-12-03T05:29:55.891Z,1011.08
2022-12-03T05:30:55.919Z,1011.00
2022-12-03T05:31:56.908Z,1011.07
2022-12-03T05:32:56.656Z,1011.02
2022-12-03T05:33:56.257Z,1011.05
2022-12-03T05:34:56.350Z,1011.03
2022-12-03T05:35:56.847Z,1011.04
2022-12-03T05:36:55.824Z,1011.09
2022-12-03T05:37:55.895Z,1011.05
2022-12-03T05:38:56.485Z,1011.16
2022-12-03T05:39:55.805Z,1011.14
2022-12-03T05:40:56.784Z,1011.11
2022-12-03T05:41:55.795Z,1011.12
2022-12-03T05:42:55.798Z,1011.13
2022-12-03T05:43:55.812Z,1011.09
2022-12-03T05:44:56.203Z,1011.17
2022-12-03T05:45:55.847Z,1011.16
2022-12-03T05:46:55.895Z,1011.15
2022-12-03T05:47:55.763Z,1011.13
2022-12-03T05:48:55.835Z,1011.10
2022-12-03T05:49:55.732Z,1011.09
2022-12-03T05:50:55.747Z,1011.10
2022-12-03T05:51:58.730Z,1011.17
2022-12-03T05:52:55.757Z,1011.14
2022-12-03T05:53:55.872Z,1011.15
2022-12-03T05:54:56.140Z,1011.20
2022-12-03T05:55:55.722Z,1011.19
2022-12-03T05:56:55.752Z,1011.27
2022-12-03T05:57:55.694Z,1011.22
2022-12-03T05:58:55.821Z,1011.27
2022-12-03T05:59:55.670Z,1011.31
2022-12-03T06:00:55.718Z,1011.32
2022-12-03T06:01:55.720Z,1011.23
2022-12-03T06:02:55.854Z,1011.20
2022-12-03T06:03:55.772Z,1011.22
2022-12-03T06:04:55.934Z,1011.22
2022-12-03T06:05:55.777Z,1011.24
2022-12-03T06:06:55.787Z,1011.30
2022-12-03T06:07:55.809Z,1011.28
2022-12-03T06:08:55.656Z,1011.21
2022-12-03T06:09:55.738Z,1011.24
2022-12-03T06:10:55.696Z,1011.21
2022-12-03T06:11:55.697Z,1011.21
2022-12-03T06:12:55.646Z,1011.25
2022-12-03T06:13:55.626Z,1011.21
2022-12-03T06:14:55.924Z,1011.21
2022-12-03T06:15:55.634Z,1011.19
2022-12-03T06:16:55.705Z,1011.21
2022-12-03T06:17:55.555Z,1011.25
2022-12-03T06:18:55.749Z,1011.18
2022-12-03T06:19:55.573Z,1011.18
2022-12-03T06:20:55.820Z,1011.19
2022-12-03T06:21:55.864Z,1011.21
2022-12-03T06:22:55.636Z,1011.20
2022-12-03T06:23:55.873Z,1011.22
2022-12-03T06:24:56.255Z,1011.19
2022-12-03T06:25:55.853Z,1011.16
2022-12-03T06:26:55.604Z,1011.18
2022-12-03T06:29:21.799Z,1011.14
2022-12-03T06:30:21.810Z,1011.18
2022-12-03T06:31:21.511Z,1011.18
2022-12-03T06:32:22.032Z,1011.16
2022-12-03T06:33:22.028Z,1011.17
2022-12-03T06:34:21.481Z,1011.19
2022-12-03T06:35:21.428Z,1011.15
2022-12-03T06:36:23.228Z,1011.14
2022-12-03T06:37:21.437Z,1011.15
2022-12-03T06:38:21.496Z,1011.17
2022-12-03T06:39:21.447Z,1011.08
2022-12-03T06:40:21.388Z,1011.12
2022-12-03T06:41:21.505Z,1011.12
2022-12-03T06:42:21.365Z,1011.14
2022-12-03T06:43:21.418Z,1011.17
2022-12-03T06:44:21.356Z,1011.21
2022-12-03T06:45:21.364Z,1011.17
2022-12-03T06:46:21.538Z,1011.22
2022-12-03T06:47:21.347Z,1011.23
2022-12-03T06:48:21.452Z,1011.18
2022-12-03T06:49:21.444Z,1011.18
2022-12-03T06:50:21.524Z,1011.21
2022-12-03T06:51:21.317Z,1011.21
2022-12-03T06:52:21.302Z,1011.15
2022-12-03T06:53:21.322Z,1011.16
2022-12-03T06:54:21.281Z,1011.14
2022-12-03T06:55:21.289Z,1011.19
2022-12-03T06:56:22.421Z,1011.15
2022-12-03T06:57:21.471Z,1011.15
2022-12-03T06:58:21.499Z,1011.17
2022-12-03T06:59:21.700Z,1011.17
2022-12-03T07:00:21.247Z,1011.13
2022-12-03T07:01:21.312Z,1011.24
2022-12-03T07:02:21.239Z,1011.27
2022-12-03T07:03:22.779Z,1011.26
2022-12-03T07:04:21.273Z,1011.29
2022-12-03T07:05:21.328Z,1011.20
2022-12-03T07:06:21.548Z,1011.25
2022-12-03T07:07:21.208Z,1011.27
2022-12-03T07:08:21.565Z,1011.29
2022-12-03T07:09:21.263Z,1011.25
2022-12-03T07:10:21.189Z,1011.24
2022-12-03T07:11:21.226Z,1011.27
2022-12-03T07:12:21.366Z,1011.17
2022-12-03T07:13:21.198Z,1011.26
2022-12-03T07:14:21.186Z,1011.24
2022-12-03T07:15:21.186Z,1011.23
2022-12-03T07:16:21.246Z,1011.28
2022-12-03T07:17:21.824Z,1011.17
2022-12-03T07:18:21.155Z,1011.16
2022-12-03T07:19:21.164Z,1011.21
2022-12-03T07:20:21.433Z,1011.18
2022-12-03T07:21:21.953Z,1011.24
2022-12-03T07:22:21.940Z,1011.19
2022-12-03T07:23:21.133Z,1011.21
2022-12-03T07:24:21.974Z,1011.16
2022-12-03T07:25:23.687Z,1011.19
2022-12-03T07:26:21.895Z,1011.22
2022-12-03T07:27:21.090Z,1011.24
2022-12-03T07:28:21.181Z,1011.21
2022-12-03T07:29:21.091Z,1011.25
2022-12-03T07:30:21.092Z,1011.23
2022-12-03T07:31:21.130Z,1011.16
2022-12-03T07:32:21.109Z,1011.12
2022-12-03T07:33:22.043Z,1011.12
2022-12-03T07:34:21.119Z,1011.11
2022-12-03T07:35:21.058Z,1011.12
2022-12-03T07:36:21.038Z,1011.17
2022-12-03T07:37:23.269Z,1011.16
2022-12-03T07:38:21.049Z,1011.15
2022-12-03T07:39:21.058Z,1011.14
2022-12-03T07:40:20.997Z,1011.14
2022-12-03T07:41:21.011Z,1011.14
2022-12-03T07:42:20.985Z,1011.09
2022-12-03T07:43:21.186Z,1011.07
2022-12-03T07:44:20.987Z,1011.07
2022-12-03T07:45:20.966Z,1011.03
2022-12-03T07:46:21.008Z,1010.95
2022-12-03T07:47:20.961Z,1010.99
2022-12-03T07:48:21.225Z,1010.93
2022-12-03T07:49:21.026Z,1010.97
2022-12-03T07:50:20.943Z,1010.93
2022-12-03T07:51:20.973Z,1010.99
2022-12-03T07:52:21.082Z,1010.92
2022-12-03T07:53:21.053Z,1010.93
2022-12-03T07:54:20.915Z,1011.00
2022-12-03T07:55:20.911Z,1010.95
2022-12-03T07:56:20.892Z,1011.02
2022-12-03T07:57:20.891Z,1010.95
2022-12-03T07:58:20.901Z,1010.96
2022-12-03T07:59:20.881Z,1010.99
2022-12-03T08:00:20.861Z,1011.03
2022-12-03T08:01:20.881Z,1010.97
2022-12-03T08:02:21.844Z,1010.92
2022-12-03T08:03:20.878Z,1011.00
2022-12-03T08:04:20.871Z,1010.99
2022-12-03T08:05:20.843Z,1010.96
2022-12-03T08:06:20.830Z,1010.99
2022-12-03T08:07:20.829Z,1010.95
2022-12-03T08:08:20.848Z,1011.01
2022-12-03T08:09:20.828Z,1010.99
2022-12-03T08:10:20.896Z,1010.99
2022-12-03T08:11:20.797Z,1010.98
2022-12-03T08:12:20.807Z,1010.97
2022-12-03T08:13:20.785Z,1010.97
2022-12-03T08:14:20.778Z,1011.02
2022-12-03T08:15:21.217Z,1011.00
2022-12-03T08:16:21.527Z,1010.96
2022-12-03T08:17:20.832Z,1010.99
2022-12-03T08:18:20.766Z,1010.99
2022-12-03T08:19:20.825Z,1010.96
2022-12-03T08:20:20.835Z,1010.94
2022-12-03T08:21:20.734Z,1010.95
2022-12-03T08:22:20.728Z,1010.95
2022-12-03T08:23:20.725Z,1010.93
2022-12-03T08:24:21.067Z,1011.01
2022-12-03T08:25:20.964Z,1010.98
2022-12-03T08:26:21.084Z,1010.96
2022-12-03T08:27:20.705Z,1010.97
2022-12-03T08:28:20.694Z,1010.96
2022-12-03T08:29:20.695Z,1010.99
2022-12-03T08:30:21.319Z,1011.00
2022-12-03T08:31:20.793Z,1011.01
2022-12-03T08:32:21.137Z,1010.98
2022-12-03T08:33:21.333Z,1010.95
2022-12-03T08:34:21.560Z,1011.00
2022-12-03T08:35:20.670Z,1011.01
2022-12-03T08:36:22.090Z,1011.02
2022-12-03T08:37:21.570Z,1010.98
2022-12-03T08:38:20.670Z,1011.07
2022-12-03T08:39:21.460Z,1010.98
2022-12-03T08:40:20.777Z,1010.97
2022-12-03T08:41:20.780Z,1010.97
2022-12-03T08:42:20.789Z,1010.98
2022-12-03T08:43:20.599Z,1010.94
2022-12-03T08:44:20.862Z,1010.98
2022-12-03T08:45:20.597Z,1010.92
2022-12-03T08:46:21.199Z,1010.95
2022-12-03T08:47:20.577Z,1011.02
2022-12-03T08:48:21.040Z,1011.03
2022-12-03T08:49:20.583Z,1011.01
2022-12-03T08:50:20.837Z,1010.98
2022-12-03T08:51:21.058Z,1011.03
2022-12-03T08:52:20.747Z,1011.03
2022-12-03T08:53:20.535Z,1011.06
2022-12-03T08:54:21.184Z,1011.02
2022-12-03T08:55:21.185Z,1011.06
2022-12-03T08:56:20.576Z,1010.94
2022-12-03T08:57:20.513Z,1010.99
2022-12-03T08:58:20.646Z,1010.97
2022-12-03T08:59:20.504Z,1010.98
2022-12-03T09:00:20.609Z,1010.91
2022-12-03T09:01:20.555Z,1010.92
2022-12-03T09:02:20.713Z,1010.92
2022-12-03T09:03:20.723Z,1010.91
2022-12-03T09:04:20.653Z,1010.93
2022-12-03T09:05:20.842Z,1010.93
2022-12-03T09:06:20.852Z,1010.92
2022-12-03T09:07:20.866Z,1010.95
2022-12-03T09:08:20.998Z,1010.91
2022-12-03T09:09:20.461Z,1010.95
2022-12-03T09:10:20.874Z,1010.92
2022-12-03T09:11:20.429Z,1010.95
2022-12-03T09:12:20.481Z,1010.98
2022-12-03T09:13:20.797Z,1011.03
2022-12-03T09:14:21.014Z,1011.07
2022-12-03T09:15:21.227Z,1011.09
2022-12-03T09:16:20.448Z,1011.06
2022-12-03T09:17:20.369Z,1011.08
2022-12-03T09:18:20.443Z,1010.99
2022-12-03T09:19:20.377Z,1011.08
2022-12-03T09:20:20.356Z,1011.07
2022-12-03T09:21:20.374Z,1011.04
2022-12-03T09:22:21.085Z,1011.04
2022-12-03T09:23:20.346Z,1011.08
2022-12-03T09:24:20.465Z,1011.04
2022-12-03T09:25:21.509Z,1011.03
2022-12-03T09:26:20.355Z,1010.99
2022-12-03T09:27:20.317Z,1010.99
2022-12-03T09:28:20.703Z,1011.05
2022-12-03T09:29:21.265Z,1010.99
2022-12-03T09:30:20.915Z,1011.02
2022-12-03T09:31:20.395Z,1010.97
2022-12-03T09:32:20.401Z,1011.06
2022-12-03T09:33:20.326Z,1011.05
2022-12-03T09:34:20.263Z,1011.04
2022-12-03T09:35:20.352Z,1011.01
2022-12-03T09:36:20.261Z,1011.01
2022-12-03T09:37:20.353Z,1010.97
2022-12-03T09:38:20.473Z,1011.07
2022-12-03T09:39:20.373Z,1010.99
2022-12-03T09:40:20.231Z,1010.98
2022-12-03T09:41:20.241Z,1010.97
2022-12-03T09:42:20.591Z,1010.98
2022-12-03T09:43:20.217Z,1010.99
2022-12-03T09:44:20.809Z,1010.97
2022-12-03T09:45:20.610Z,1010.99
2022-12-03T09:46:20.878Z,1010.91
2022-12-03T09:47:20.427Z,1010.88
2022-12-03T09:48:20.838Z,1010.93
2022-12-03T09:49:21.051Z,1010.87
2022-12-03T09:50:20.173Z,1010.87
2022-12-03T09:51:20.162Z,1010.88
2022-12-03T09:52:20.167Z,1010.90
2022-12-03T09:53:20.146Z,1010.82
2022-12-03T09:54:20.138Z,1010.90
2022-12-03T09:55:20.137Z,1010.85
2022-12-03T09:56:20.979Z,1010.82
2022-12-03T09:57:20.137Z,1010.74
2022-12-03T09:58:20.128Z,1010.78
2022-12-03T09:59:20.122Z,1010.66
2022-12-03T10:00:21.176Z,1010.66
2022-12-03T10:01:21.525Z,1010.64
2022-12-03T10:02:20.105Z,1010.60
2022-12-03T10:03:22.050Z,1010.63
2022-12-03T10:04:20.207Z,1010.65
2022-12-03T10:05:20.063Z,1010.57
2022-12-03T10:06:20.053Z,1010.57
2022-12-03T10:07:20.074Z,1010.57
2022-12-03T10:08:20.172Z,1010.55
2022-12-03T10:09:20.094Z,1010.56
2022-12-03T10:10:20.916Z,1010.59
2022-12-03T10:11:20.091Z,1010.52
2022-12-03T10:12:20.096Z,1010.55
2022-12-03T10:13:25.501Z,1010.51
2022-12-03T10:14:20.245Z,1010.54
2022-12-03T10:15:20.026Z,1010.57
2022-12-03T10:16:20.152Z,1010.56
2022-12-03T10:17:20.223Z,1010.58
2022-12-03T10:18:20.333Z,1010.51
2022-12-03T10:19:19.993Z,1010.48
2022-12-03T10:20:20.342Z,1010.46
2022-12-03T10:21:20.466Z,1010.46
2022-12-03T10:22:20.069Z,1010.45
2022-12-03T10:23:19.958Z,1010.42
2022-12-03T10:24:19.998Z,1010.40
2022-12-03T10:25:19.954Z,1010.41
2022-12-03T10:26:19.977Z,1010.45
2022-12-03T10:27:20.697Z,1010.38
2022-12-03T10:28:21.407Z,1010.42
2022-12-03T10:29:20.017Z,1010.36
2022-12-03T10:30:19.957Z,1010.31
2022-12-03T10:31:20.055Z,1010.33
2022-12-03T10:32:20.347Z,1010.37
2022-12-03T10:33:19.906Z,1010.36
2022-12-03T10:34:19.925Z,1010.34
2022-12-03T10:35:19.875Z,1010.33
2022-12-03T10:36:19.985Z,1010.30
2022-12-03T10:37:19.971Z,1010.34
2022-12-03T10:38:19.980Z,1010.24
2022-12-03T10:39:20.694Z,1010.28
2022-12-03T10:40:19.969Z,1010.24
2022-12-03T10:41:19.833Z,1010.26
2022-12-03T10:42:20.072Z,1010.25
2022-12-03T10:43:19.823Z,1010.25
2022-12-03T10:44:19.812Z,1010.27
2022-12-03T10:45:20.881Z,1010.25
2022-12-03T10:46:20.327Z,1010.20
2022-12-03T10:47:19.996Z,1010.25
2022-12-03T10:48:20.254Z,1010.20
2022-12-03T10:49:20.752Z,1010.20
2022-12-03T10:50:19.785Z,1010.21
2022-12-03T10:51:19.851Z,1010.19
2022-12-03T10:52:25.327Z,1010.19
2022-12-03T10:53:19.759Z,1010.19
2022-12-03T10:54:20.147Z,1010.15
2022-12-03T10:55:20.078Z,1010.14
2022-12-03T10:56:19.737Z,1010.16
2022-12-03T10:57:19.729Z,1010.18
2022-12-03T10:58:19.760Z,1010.10
2022-12-03T10:59:19.726Z,1010.15
2022-12-03T11:00:19.708Z,1010.14
2022-12-03T11:01:19.840Z,1010.07
2022-12-03T11:02:19.699Z,1010.09
2022-12-03T11:03:19.840Z,1010.08
2022-12-03T11:04:19.736Z,1010.06
2022-12-03T11:05:19.677Z,1010.09
2022-12-03T11:06:19.676Z,1010.05
2022-12-03T11:07:19.670Z,1010.02
2022-12-03T11:08:19.851Z,1009.99
2022-12-03T11:09:19.664Z,1010.04
2022-12-03T11:10:19.644Z,1010.01
2022-12-03T11:11:19.641Z,1010.00
2022-12-03T11:12:19.643Z,1009.99
2022-12-03T11:13:19.642Z,1009.98
2022-12-03T11:14:22.892Z,1009.98
2022-12-03T11:15:19.620Z,1009.93
2022-12-03T11:16:19.675Z,1009.98
2022-12-03T11:17:19.623Z,1009.94
2022-12-03T11:18:19.630Z,1009.92
2022-12-03T11:19:19.654Z,1009.91
2022-12-03T11:20:22.855Z,1009.88
2022-12-03T11:21:19.580Z,1009.91
2022-12-03T11:22:19.764Z,1009.88
2022-12-03T11:23:19.762Z,1009.87
2022-12-03T11:24:19.702Z,1009.88
2022-12-03T11:25:19.571Z,1009.87
2022-12-03T11:26:20.084Z,1009.90
2022-12-03T11:27:19.610Z,1009.88
2022-12-03T11:28:19.588Z,1009.86
2022-12-03T11:29:19.599Z,1009.86
2022-12-03T11:30:19.548Z,1009.87
2022-12-03T11:31:19.537Z,1009.83
2022-12-03T11:32:19.568Z,1009.83
2022-12-03T11:33:19.509Z,1009.87
2022-12-03T11:34:19.599Z,1009.83
2022-12-03T11:35:19.486Z,1009.85
2022-12-03T11:36:31.674Z,1009.81
2022-12-03T11:37:19.476Z,1009.87
2022-12-03T11:38:19.515Z,1009.86
2022-12-03T11:39:19.466Z,1009.75
2022-12-03T11:40:19.885Z,1009.76
2022-12-03T11:41:19.898Z,1009.73
2022-12-03T11:42:19.897Z,1009.75
2022-12-03T11:43:20.005Z,1009.74
2022-12-03T11:44:19.503Z,1009.68
2022-12-03T11:45:19.424Z,1009.71
2022-12-03T11:46:19.780Z,1009.75
2022-12-03T11:47:19.826Z,1009.71
2022-12-03T11:48:19.673Z,1009.67
2022-12-03T11:49:19.434Z,1009.69
2022-12-03T11:50:19.445Z,1009.74
2022-12-03T11:51:19.454Z,1009.68
2022-12-03T11:52:19.468Z,1009.69
2022-12-03T11:53:19.461Z,1009.70
2022-12-03T11:54:19.487Z,1009.66
2022-12-03T11:55:19.502Z,1009.67
2022-12-03T11:56:19.481Z,1009.67
2022-12-03T11:57:19.391Z,1009.70
2022-12-03T11:58:19.500Z,1009.61
2022-12-03T11:59:19.341Z,1009.62
2022-12-03T12:00:19.339Z,1009.52
2022-12-03T12:01:19.319Z,1009.61
2022-12-03T12:02:19.319Z,1009.56
2022-12-03T12:03:19.471Z,1009.57
2022-12-03T12:04:19.413Z,1009.63
2022-12-03T12:05:19.369Z,1009.59
2022-12-03T12:06:19.369Z,1009.55
2022-12-03T12:07:19.277Z,1009.56
2022-12-03T12:08:19.361Z,1009.61